createdAt,value
2024-02-23T00:00:06.763Z,93305.19
2024-02-23T00:02:35.084Z,93318.53
2024-02-23T00:05:07.532Z,93306.88
2024-02-23T00:07:35.973Z,93308.78
2024-02-23T00:10:04.646Z,93280.56
2024-02-23T00:12:33.039Z,93276.63
2024-02-23T00:15:01.365Z,93271.81
2024-02-23T00:17:29.885Z,93267.44
2024-02-23T00:19:58.241Z,93271.09
2024-02-23T00:22:28.068Z,93281.59
2024-02-23T00:24:56.691Z,93286.00
2024-02-23T00:27:25.102Z,93295.09
2024-02-23T00:29:53.394Z,93296.53
2024-02-23T00:32:21.798Z,93314.75
2024-02-23T00:34:50.244Z,93326.81
2024-02-23T00:37:18.890Z,93329.81
2024-02-23T00:39:48.612Z,93327.91
2024-02-23T00:42:17.014Z,93325.44
2024-02-23T00:44:45.314Z,93350.69
2024-02-23T00:47:13.687Z,93358.84
2024-02-23T00:49:42.027Z,93366.69
2024-02-23T00:52:11.712Z,93376.28
2024-02-23T00:54:40.092Z,93371.59
2024-02-23T00:57:09.875Z,93397.47
2024-02-23T00:59:38.266Z,93405.78
2024-02-23T01:02:07.011Z,93418.63
2024-02-23T01:04:35.616Z,93418.47
2024-02-23T01:07:03.947Z,93437.13
2024-02-23T01:09:32.311Z,93429.31
2024-02-23T01:12:00.833Z,93432.44
2024-02-23T01:14:30.702Z,93438.97
2024-02-23T01:16:59.367Z,93452.91
2024-02-23T01:19:27.811Z,93453.09
2024-02-23T01:22:01.186Z,93448.84
2024-02-23T01:24:30.557Z,93436.94
2024-02-23T01:26:59.188Z,93444.63
2024-02-23T01:29:28.088Z,93440.69
2024-02-23T01:31:58.301Z,93464.53
2024-02-23T01:34:26.751Z,93475.78
2024-02-23T01:36:55.074Z,93476.09
2024-02-23T01:39:23.400Z,93487.38
2024-02-23T01:41:51.725Z,93487.53
2024-02-23T01:44:22.370Z,93486.75
2024-02-23T01:46:51.165Z,93500.34
2024-02-23T01:49:22.635Z,93487.03
2024-02-23T01:51:51.125Z,93488.13
2024-02-23T01:54:19.408Z,93502.88
2024-02-23T01:56:47.990Z,93491.25
2024-02-23T01:59:16.807Z,93484.38
2024-02-23T02:01:45.371Z,93486.41
2024-02-23T02:04:13.787Z,93498.44
2024-02-23T02:06:43.594Z,93503.28
2024-02-23T02:09:12.174Z,93495.94
2024-02-23T02:11:48.000Z,93513.28
2024-02-23T02:14:16.418Z,93518.91
2024-02-23T02:16:45.158Z,93545.34
2024-02-23T02:19:13.510Z,93540.66
2024-02-23T02:21:43.350Z,93556.44
2024-02-23T02:24:13.773Z,93551.72
2024-02-23T02:26:44.371Z,93557.69
2024-02-23T02:29:12.737Z,93556.41
2024-02-23T02:31:41.411Z,93559.97
2024-02-23T02:34:09.821Z,93564.06
2024-02-23T02:36:38.230Z,93566.22
2024-02-23T02:39:11.379Z,93590.78
2024-02-23T02:41:40.054Z,93582.50
2024-02-23T02:44:08.765Z,93597.97
2024-02-23T02:46:37.172Z,93613.44
2024-02-23T02:49:05.925Z,93597.31
2024-02-23T02:51:34.316Z,93616.03
2024-02-23T02:54:02.925Z,93600.22
2024-02-23T02:56:32.746Z,93607.50
2024-02-23T02:59:01.184Z,93627.66
2024-02-23T03:01:29.601Z,93633.38
2024-02-23T03:03:57.971Z,93626.31
2024-02-23T03:06:26.404Z,93638.44
2024-02-23T03:08:55.107Z,93636.69
2024-02-23T03:11:23.522Z,93627.53
2024-02-23T03:13:53.593Z,93632.19
2024-02-23T03:16:24.512Z,93648.25
2024-02-23T03:18:52.898Z,93653.97
2024-02-23T03:21:21.195Z,93660.97
2024-02-23T03:23:49.669Z,93666.09
2024-02-23T03:26:18.564Z,93675.25
2024-02-23T03:28:46.980Z,93681.44
2024-02-23T03:31:16.749Z,93696.97
2024-02-23T03:33:45.278Z,93705.94
2024-02-23T03:36:13.744Z,93713.19
2024-02-23T03:38:42.190Z,93709.06
2024-02-23T03:41:10.524Z,93712.91
2024-02-23T03:43:39.609Z,93719.28
2024-02-23T03:46:08.627Z,93724.38
2024-02-23T03:48:38.610Z,93714.66
2024-02-23T03:51:07.463Z,93721.03
2024-02-23T03:53:35.766Z,93711.88
2024-02-23T03:56:04.221Z,93710.00
2024-02-23T03:58:32.582Z,93707.34
2024-02-23T04:01:01.348Z,93718.53
2024-02-23T04:03:29.648Z,93716.44
2024-02-23T04:05:58.409Z,93712.72
2024-02-23T04:08:26.769Z,93717.53
2024-02-23T04:10:55.185Z,93718.91
2024-02-23T04:13:23.523Z,93726.66
2024-02-23T04:15:52.098Z,93729.88
2024-02-23T04:18:20.462Z,93724.97
2024-02-23T04:20:49.072Z,93733.88
2024-02-23T04:23:18.937Z,93749.84
2024-02-23T04:25:47.300Z,93753.38
2024-02-23T04:28:15.881Z,93769.00
2024-02-23T04:30:44.169Z,93770.09
2024-02-23T04:33:12.534Z,93774.09
2024-02-23T04:35:40.923Z,93786.56
2024-02-23T04:38:09.267Z,93797.97
2024-02-23T04:40:39.004Z,93781.75
2024-02-23T04:43:07.644Z,93780.47
2024-02-23T04:45:36.043Z,93777.69
2024-02-23T04:48:05.132Z,93802.69
2024-02-23T04:50:33.620Z,93791.31
2024-02-23T04:53:02.004Z,93777.81
2024-02-23T04:55:30.386Z,93784.19
2024-02-23T04:58:00.530Z,93770.16
2024-02-23T05:00:34.438Z,93775.75
2024-02-23T05:03:05.052Z,93786.06
2024-02-23T05:05:33.893Z,93785.78
2024-02-23T05:08:02.280Z,93791.59
2024-02-23T05:10:30.964Z,93793.16
2024-02-23T05:13:00.730Z,93803.78
2024-02-23T05:15:29.047Z,93797.69
2024-02-23T05:17:57.430Z,93806.19
2024-02-23T05:20:25.905Z,93824.25
2024-02-23T05:22:54.301Z,93815.22
2024-02-23T05:25:23.018Z,93827.69
2024-02-23T05:27:51.435Z,93829.84
2024-02-23T05:30:21.289Z,93826.69
2024-02-23T05:32:50.167Z,93824.69
2024-02-23T05:35:19.258Z,93825.53
2024-02-23T05:37:47.894Z,93834.63
2024-02-23T05:40:16.584Z,93833.88
2024-02-23T05:42:44.942Z,93849.06
2024-02-23T05:45:13.297Z,93851.75
2024-02-23T05:47:46.198Z,93864.22
2024-02-23T05:50:17.260Z,93861.06
2024-02-23T05:52:46.015Z,93875.13
2024-02-23T05:55:14.417Z,93868.53
2024-02-23T05:57:42.791Z,93866.69
2024-02-23T06:00:13.820Z,93861.69
2024-02-23T06:02:44.724Z,93859.03
2024-02-23T06:05:13.936Z,93866.19
2024-02-23T06:07:43.933Z,93861.16
2024-02-23T06:10:12.446Z,93870.97
2024-02-23T06:12:40.829Z,93874.94
2024-02-23T06:15:10.311Z,93868.25
2024-02-23T06:17:38.679Z,93864.81
2024-02-23T06:20:10.971Z,93874.88
2024-02-23T06:22:39.363Z,93876.44
2024-02-23T06:25:08.059Z,93872.72
2024-02-23T06:27:36.438Z,93867.16
2024-02-23T06:30:05.110Z,93874.31
2024-02-23T06:32:33.452Z,93889.41
2024-02-23T06:35:01.932Z,93879.34
2024-02-23T06:37:31.811Z,93895.72
2024-02-23T06:40:00.241Z,93889.84
2024-02-23T06:42:28.585Z,93891.44
2024-02-23T06:44:57.797Z,93902.56
2024-02-23T06:47:26.465Z,93931.13
2024-02-23T06:49:55.005Z,93939.31
2024-02-23T06:52:24.593Z,93952.28
2024-02-23T06:54:54.396Z,93963.41
2024-02-23T06:57:23.793Z,93962.34
2024-02-23T06:59:52.424Z,93974.22
2024-02-23T07:02:20.819Z,93987.19
2024-02-23T07:04:49.165Z,93988.50
2024-02-23T07:07:17.554Z,93993.00
2024-02-23T07:09:46.103Z,93988.78
2024-02-23T07:12:15.964Z,93997.50
2024-02-23T07:14:44.364Z,93997.25
2024-02-23T07:17:12.707Z,94007.84
2024-02-23T07:19:41.222Z,94013.94
2024-02-23T07:22:09.573Z,94014.22
2024-02-23T07:24:41.592Z,94014.75
2024-02-23T07:27:09.948Z,94023.22
2024-02-23T07:29:40.050Z,94009.47
2024-02-23T07:32:08.957Z,94001.22
2024-02-23T07:34:37.867Z,93997.00
2024-02-23T07:37:06.337Z,93993.34
2024-02-23T07:39:34.684Z,93994.97
2024-02-23T07:42:03.913Z,94006.91
2024-02-23T07:44:32.276Z,94019.94
2024-02-23T07:47:02.220Z,94019.94
2024-02-23T07:49:30.602Z,94023.38
2024-02-23T07:51:59.079Z,94025.72
2024-02-23T07:54:27.692Z,94036.84
2024-02-23T07:56:56.060Z,94032.34
2024-02-23T07:59:24.479Z,94028.91
2024-02-23T08:01:52.829Z,94022.53
2024-02-23T08:04:22.632Z,94021.72
2024-02-23T08:06:52.198Z,94022.19
2024-02-23T08:09:20.594Z,94024.28
2024-02-23T08:11:49.041Z,94020.84
2024-02-23T08:14:17.669Z,94013.19
2024-02-23T08:16:46.025Z,94018.44
2024-02-23T08:19:14.429Z,94014.66
2024-02-23T08:21:45.318Z,94018.56
2024-02-23T08:24:13.646Z,94029.06
2024-02-23T08:26:43.203Z,94033.00
2024-02-23T08:29:11.578Z,94036.88
2024-02-23T08:31:42.479Z,94052.22
2024-02-23T08:34:11.500Z,94065.69
2024-02-23T08:36:39.881Z,94072.06
2024-02-23T08:39:10.184Z,94071.19
2024-02-23T08:41:38.571Z,94070.19
2024-02-23T08:44:07.117Z,94071.72
2024-02-23T08:46:35.579Z,94070.34
2024-02-23T08:49:04.414Z,94073.28
2024-02-23T08:51:32.725Z,94078.59
2024-02-23T08:54:05.592Z,94072.31
2024-02-23T08:56:39.340Z,94065.16
2024-02-23T08:59:07.856Z,94065.69
2024-02-23T09:01:36.266Z,94062.81
2024-02-23T09:04:04.701Z,94067.84
2024-02-23T09:06:37.851Z,94061.13
2024-02-23T09:09:07.956Z,94053.06
2024-02-23T09:11:38.286Z,94052.50
2024-02-23T09:14:06.980Z,94062.78
2024-02-23T09:16:35.562Z,94073.34
2024-02-23T09:19:03.900Z,94061.38
2024-02-23T09:21:32.271Z,94065.81
2024-02-23T09:24:00.676Z,94069.91
2024-02-23T09:26:29.414Z,94074.38
2024-02-23T09:28:59.280Z,94072.78
2024-02-23T09:31:29.406Z,94083.84
2024-02-23T09:33:58.182Z,94086.38
2024-02-23T09:36:26.661Z,94093.41
2024-02-23T09:38:55.105Z,94097.31
2024-02-23T09:41:24.764Z,94099.47
2024-02-23T09:43:54.172Z,94098.41
2024-02-23T09:46:24.033Z,94103.41
2024-02-23T09:48:52.535Z,94098.31
2024-02-23T09:51:21.727Z,94092.22
2024-02-23T09:53:50.150Z,94094.06
2024-02-23T09:56:21.148Z,94087.97
2024-02-23T09:58:50.415Z,94085.53
2024-02-23T10:01:20.116Z,94082.88
2024-02-23T10:03:49.980Z,94091.09
2024-02-23T10:06:18.815Z,94109.88
2024-02-23T10:08:47.447Z,94108.44
2024-02-23T10:11:17.136Z,94109.03
2024-02-23T10:13:45.703Z,94105.00
2024-02-23T10:16:15.992Z,94099.41
2024-02-23T10:18:44.773Z,94110.25
2024-02-23T10:21:14.508Z,94122.53
2024-02-23T10:23:43.044Z,94117.16
2024-02-23T10:26:11.521Z,94131.28
2024-02-23T10:28:40.704Z,94137.81
2024-02-23T10:31:11.633Z,94130.47
2024-02-23T10:33:42.242Z,94131.56
2024-02-23T10:36:10.775Z,94142.69
2024-02-23T10:38:41.364Z,94141.38
2024-02-23T10:41:10.262Z,94140.25
2024-02-23T10:43:48.244Z,94142.28
2024-02-23T10:46:17.105Z,94153.19
2024-02-23T10:48:47.079Z,94148.91
2024-02-23T10:51:20.241Z,94138.59
2024-02-23T10:53:51.355Z,94130.78
2024-02-23T10:56:19.987Z,94134.22
2024-02-23T10:58:48.382Z,94130.56
2024-02-23T11:01:17.007Z,94149.19
2024-02-23T11:03:49.242Z,94145.38
2024-02-23T11:06:22.473Z,94145.50
2024-02-23T11:08:54.018Z,94133.91
2024-02-23T11:11:22.534Z,94138.84
2024-02-23T11:13:50.932Z,94135.75
2024-02-23T11:16:24.661Z,94132.06
2024-02-23T11:18:53.001Z,94130.78
2024-02-23T11:21:21.392Z,94140.13
2024-02-23T11:23:51.218Z,94137.53
2024-02-23T11:26:20.953Z,94131.88
2024-02-23T11:28:50.033Z,94139.84
2024-02-23T11:31:18.777Z,94135.09
2024-02-23T11:33:53.549Z,94144.16
2024-02-23T11:36:25.155Z,94132.16
2024-02-23T11:38:57.075Z,94139.78
2024-02-23T11:41:27.064Z,94144.72
2024-02-23T11:43:56.440Z,94137.34
2024-02-23T11:46:25.069Z,94140.16
2024-02-23T11:48:55.972Z,94141.63
2024-02-23T11:51:25.525Z,94145.31
2024-02-23T11:53:53.919Z,94137.69
2024-02-23T11:56:22.831Z,94148.97
2024-02-23T11:58:52.610Z,94153.16
2024-02-23T12:01:20.992Z,94143.88
2024-02-23T12:03:49.433Z,94138.06
2024-02-23T12:06:17.824Z,94133.44
2024-02-23T12:08:48.077Z,94132.81
2024-02-23T12:11:16.662Z,94139.38
2024-02-23T12:13:46.110Z,94133.59
2024-02-23T12:16:16.785Z,94138.84
2024-02-23T12:18:45.208Z,94133.78
2024-02-23T12:21:14.575Z,94133.78
2024-02-23T12:23:42.437Z,94128.13
2024-02-23T12:26:10.897Z,94135.75
2024-02-23T12:28:39.237Z,94138.06
2024-02-23T12:31:07.951Z,94132.09
2024-02-23T12:33:38.907Z,94128.50
2024-02-23T12:36:07.907Z,94132.72
2024-02-23T12:38:36.330Z,94137.47
2024-02-23T12:41:04.952Z,94140.56
2024-02-23T12:43:33.300Z,94139.34
2024-02-23T12:46:02.920Z,94141.50
2024-02-23T12:48:31.310Z,94144.06
2024-02-23T12:51:01.178Z,94130.00
2024-02-23T12:53:34.125Z,94127.13
2024-02-23T12:56:03.582Z,94133.94
2024-02-23T12:58:32.062Z,94125.25
2024-02-23T13:01:00.504Z,94136.09
2024-02-23T13:03:30.057Z,94144.22
2024-02-23T13:06:00.230Z,94137.31
2024-02-23T13:08:28.713Z,94132.56
2024-02-23T13:10:57.200Z,94130.72
2024-02-23T13:13:25.921Z,94137.31
2024-02-23T13:15:54.788Z,94140.78
2024-02-23T13:18:23.701Z,94138.03
2024-02-23T13:20:52.671Z,94141.50
2024-02-23T13:23:22.560Z,94151.41
2024-02-23T13:25:50.960Z,94143.56
2024-02-23T13:28:19.296Z,94147.47
2024-02-23T13:30:47.629Z,94160.38
2024-02-23T13:33:17.595Z,94149.75
2024-02-23T13:35:46.165Z,94148.31
2024-02-23T13:38:14.633Z,94144.25
2024-02-23T13:40:44.491Z,94127.91
2024-02-23T13:43:12.937Z,94136.47
2024-02-23T13:45:51.127Z,94139.69
2024-02-23T13:48:20.676Z,94140.97
2024-02-23T13:50:49.338Z,94148.44
2024-02-23T13:53:17.882Z,94149.50
2024-02-23T13:55:47.663Z,94154.56
2024-02-23T13:58:16.030Z,94154.38
2024-02-23T14:00:44.682Z,94158.38
2024-02-23T14:03:14.528Z,94160.84
2024-02-23T14:05:45.871Z,94155.31
2024-02-23T14:08:14.603Z,94161.16
2024-02-23T14:10:44.546Z,94149.72
2024-02-23T14:13:14.410Z,94151.81
2024-02-23T14:15:43.033Z,94155.47
2024-02-23T14:18:11.362Z,94162.88
2024-02-23T14:20:39.849Z,94166.09
2024-02-23T14:23:08.214Z,94152.91
2024-02-23T14:25:36.529Z,94151.31
2024-02-23T14:28:05.614Z,94151.63
2024-02-23T14:30:35.372Z,94152.97
2024-02-23T14:33:03.798Z,94153.25
2024-02-23T14:35:32.120Z,94152.72
2024-02-23T14:38:00.520Z,94151.13
2024-02-23T14:40:29.081Z,94150.94
2024-02-23T14:42:57.628Z,94150.75
2024-02-23T14:45:25.959Z,94140.13
2024-02-23T14:47:55.768Z,94144.94
2024-02-23T14:50:24.245Z,94141.75
2024-02-23T14:52:52.646Z,94138.59
2024-02-23T14:55:21.130Z,94142.03
2024-02-23T14:57:49.430Z,94139.34
2024-02-23T15:00:18.647Z,94153.09
2024-02-23T15:02:47.019Z,94157.13
2024-02-23T15:05:19.032Z,94158.19
2024-02-23T15:07:47.654Z,94166.97
2024-02-23T15:10:16.589Z,94152.09
2024-02-23T15:12:44.901Z,94136.69
2024-02-23T15:15:13.235Z,94120.19
2024-02-23T15:17:43.424Z,94113.31
2024-02-23T15:20:12.918Z,94108.78
2024-02-23T15:22:44.059Z,94114.16
2024-02-23T15:25:13.679Z,94123.69
2024-02-23T15:27:42.083Z,94128.50
2024-02-23T15:30:11.716Z,94131.19
2024-02-23T15:32:40.264Z,94131.19
2024-02-23T15:35:09.357Z,94138.69
2024-02-23T15:37:38.104Z,94146.69
2024-02-23T15:40:09.130Z,94144.06
2024-02-23T15:42:37.936Z,94147.50
2024-02-23T15:45:07.354Z,94145.72
2024-02-23T15:47:35.891Z,94147.28
2024-02-23T15:50:22.707Z,94160.28
2024-02-23T15:52:53.118Z,94161.66
2024-02-23T15:55:22.986Z,94172.56
2024-02-23T15:57:51.365Z,94185.03
2024-02-23T16:00:20.488Z,94202.34
2024-02-23T16:02:49.237Z,94203.16
2024-02-23T16:05:17.709Z,94215.66
2024-02-23T16:07:46.925Z,94220.16
2024-02-23T16:10:15.890Z,94215.41
2024-02-23T16:12:47.474Z,94201.66
2024-02-23T16:15:15.886Z,94195.81
2024-02-23T16:17:44.390Z,94196.13
2024-02-23T16:20:13.463Z,94185.50
2024-02-23T16:22:41.850Z,94173.91
2024-02-23T16:25:11.280Z,94154.03
2024-02-23T16:27:42.946Z,94133.38
2024-02-23T16:30:13.793Z,94132.34
2024-02-23T16:32:42.335Z,94133.41
2024-02-23T16:35:16.913Z,94131.31
2024-02-23T16:37:45.308Z,94133.44
2024-02-23T16:40:24.038Z,94152.81
2024-02-23T16:42:52.572Z,94157.31
2024-02-23T16:45:24.403Z,94155.75
2024-02-23T16:47:53.748Z,94154.72
2024-02-23T16:50:22.233Z,94151.53
2024-02-23T16:52:50.589Z,94154.19
2024-02-23T16:55:19.775Z,94152.13
2024-02-23T16:57:48.405Z,94147.09
2024-02-23T17:00:19.918Z,94154.78
2024-02-23T17:02:49.714Z,94159.81
2024-02-23T17:05:18.203Z,94164.34
2024-02-23T17:07:46.656Z,94165.41
2024-02-23T17:10:15.513Z,94179.97
2024-02-23T17:12:46.425Z,94173.88
2024-02-23T17:15:14.749Z,94161.75
2024-02-23T17:17:43.207Z,94162.28
2024-02-23T17:20:13.505Z,94167.03
2024-02-23T17:22:42.416Z,94170.22
2024-02-23T17:25:11.087Z,94155.44
2024-02-23T17:27:39.556Z,94159.63
2024-02-23T17:30:08.862Z,94154.09
2024-02-23T17:32:37.341Z,94151.19
2024-02-23T17:35:06.618Z,94141.72
2024-02-23T17:37:36.719Z,94135.63
2024-02-23T17:40:05.494Z,94139.59
2024-02-23T17:42:33.841Z,94146.47
2024-02-23T17:45:02.175Z,94145.16
2024-02-23T17:47:30.558Z,94145.41
2024-02-23T17:49:59.009Z,94147.25
2024-02-23T17:52:29.728Z,94142.75
2024-02-23T17:55:00.876Z,94141.22
2024-02-23T17:57:29.220Z,94143.84
2024-02-23T17:59:57.643Z,94153.88
2024-02-23T18:02:26.174Z,94144.63
2024-02-23T18:04:54.899Z,94150.19
2024-02-23T18:07:23.334Z,94149.13
2024-02-23T18:09:51.794Z,94141.44
2024-02-23T18:12:21.771Z,94136.16
2024-02-23T18:14:50.724Z,94127.94
2024-02-23T18:17:19.166Z,94110.22
2024-02-23T18:19:48.602Z,94122.38
2024-02-23T18:22:16.943Z,94114.97
2024-02-23T18:24:45.342Z,94111.53
2024-02-23T18:27:13.749Z,94111.75
2024-02-23T18:29:43.638Z,94120.50
2024-02-23T18:32:13.230Z,94128.16
2024-02-23T18:34:41.725Z,94111.22
2024-02-23T18:37:10.126Z,94114.41
2024-02-23T18:39:38.478Z,94121.28
2024-02-23T18:42:08.055Z,94133.19
2024-02-23T18:44:37.271Z,94132.94
2024-02-23T18:47:07.387Z,94139.53
2024-02-23T18:49:35.874Z,94140.06
2024-02-23T18:52:05.032Z,94123.94
2024-02-23T18:54:33.342Z,94130.81
2024-02-23T18:57:02.544Z,94123.66
2024-02-23T18:59:31.102Z,94104.34
2024-02-23T19:01:59.527Z,94113.34
2024-02-23T19:04:30.632Z,94108.06
2024-02-23T19:06:58.986Z,94121.03
2024-02-23T19:09:27.308Z,94132.09
2024-02-23T19:11:55.736Z,94145.09
2024-02-23T19:14:24.404Z,94152.25
2024-02-23T19:16:52.830Z,94158.06
2024-02-23T19:19:21.246Z,94159.13
2024-02-23T19:21:51.010Z,94165.75
2024-02-23T19:24:19.668Z,94179.25
2024-02-23T19:26:49.280Z,94181.63
2024-02-23T19:29:17.636Z,94179.50
2024-02-23T19:31:45.998Z,94176.06
2024-02-23T19:34:14.344Z,94170.25
2024-02-23T19:36:42.641Z,94171.84
2024-02-23T19:39:13.379Z,94171.06
2024-02-23T19:41:45.317Z,94168.13
2024-02-23T19:44:13.831Z,94171.56
2024-02-23T19:46:42.222Z,94155.16
2024-02-23T19:49:10.753Z,94158.13
2024-02-23T19:51:39.387Z,94155.47
2024-02-23T19:54:08.664Z,94158.38
2024-02-23T19:56:38.482Z,94156.78
2024-02-23T19:59:06.901Z,94143.03
2024-02-23T20:01:35.216Z,94138.53
2024-02-23T20:04:04.421Z,94121.84
2024-02-23T20:06:33.030Z,94117.63
2024-02-23T20:09:01.988Z,94115.81
2024-02-23T20:11:30.492Z,94112.91
2024-02-23T20:14:00.404Z,94117.94
2024-02-23T20:16:28.777Z,94127.72
2024-02-23T20:18:57.147Z,94129.56
2024-02-23T20:21:27.078Z,94138.31
2024-02-23T20:23:55.377Z,94150.75
2024-02-23T20:26:23.708Z,94154.19
2024-02-23T20:28:52.040Z,94154.19
2024-02-23T20:31:22.935Z,94160.56
2024-02-23T20:33:51.643Z,94158.19
2024-02-23T20:36:20.058Z,94154.19
2024-02-23T20:38:48.493Z,94156.84
2024-02-23T20:41:16.828Z,94162.41
2024-02-23T20:43:45.469Z,94156.06
2024-02-23T20:46:13.780Z,94153.69
2024-02-23T20:48:43.882Z,94165.56
2024-02-23T20:51:12.274Z,94155.28
2024-02-23T20:53:40.672Z,94151.31
2024-02-23T20:56:10.903Z,94157.66
2024-02-23T20:58:39.445Z,94162.44
2024-02-23T21:01:08.610Z,94156.09
2024-02-23T21:03:37.826Z,94165.34
2024-02-23T21:06:10.756Z,94163.22
2024-02-23T21:08:40.693Z,94160.84
2024-02-23T21:11:09.460Z,94159.25
2024-02-23T21:13:37.878Z,94157.41
2024-02-23T21:16:06.942Z,94156.88
2024-02-23T21:18:35.325Z,94149.72
2024-02-23T21:21:03.839Z,94151.63
2024-02-23T21:23:33.951Z,94150.53
2024-02-23T21:26:02.394Z,94155.81
2024-02-23T21:28:30.748Z,94156.09
2024-02-23T21:31:04.993Z,94145.53
2024-02-23T21:33:33.733Z,94155.03
2024-02-23T21:36:02.548Z,94149.75
2024-02-23T21:38:30.935Z,94149.22
2024-02-23T21:41:00.844Z,94155.06
2024-02-23T21:43:29.476Z,94152.94
2024-02-23T21:45:57.835Z,94151.38
2024-02-23T21:48:26.258Z,94161.16
2024-02-23T21:50:54.603Z,94147.41
2024-02-23T21:53:23.009Z,94147.94
2024-02-23T21:55:51.330Z,94143.47
2024-02-23T21:58:21.400Z,94133.41
2024-02-23T22:00:49.883Z,94126.78
2024-02-23T22:03:19.750Z,94128.09
2024-02-23T22:05:48.346Z,94115.94
2024-02-23T22:08:16.762Z,94117.78
2024-02-23T22:10:45.287Z,94130.75
2024-02-23T22:13:13.890Z,94136.59
2024-02-23T22:15:43.752Z,94134.22
2024-02-23T22:18:12.198Z,94137.91
2024-02-23T22:20:40.718Z,94142.13
2024-02-23T22:23:10.707Z,94150.63
2024-02-23T22:25:39.440Z,94148.75
2024-02-23T22:28:08.077Z,94142.94
2024-02-23T22:30:36.515Z,94152.72
2024-02-23T22:33:08.142Z,94143.19
2024-02-23T22:35:36.624Z,94149.81
2024-02-23T22:38:05.605Z,94165.66
2024-02-23T22:40:34.386Z,94168.31
2024-02-23T22:43:02.716Z,94165.41
2024-02-23T22:45:31.028Z,94166.19
2024-02-23T22:47:59.626Z,94169.63
2024-02-23T22:50:29.536Z,94174.38
2024-02-23T22:52:58.235Z,94169.63
2024-02-23T22:55:26.680Z,94173.84
2024-02-23T22:57:55.071Z,94165.94
2024-02-23T23:00:23.509Z,94156.16
2024-02-23T23:02:51.939Z,94162.78
2024-02-23T23:05:22.161Z,94166.47
2024-02-23T23:07:51.957Z,94162.47
2024-02-23T23:10:20.415Z,94164.38
2024-02-23T23:12:48.760Z,94165.13
2024-02-23T23:15:17.348Z,94162.22
2024-02-23T23:17:45.792Z,94168.56
2024-02-23T23:20:14.563Z,94159.06
2024-02-23T23:22:42.947Z,94175.44
2024-02-23T23:25:13.120Z,94168.06
2024-02-23T23:27:41.390Z,94163.28
2024-02-23T23:30:10.328Z,94163.56
2024-02-23T23:32:40.847Z,94160.91
2024-02-23T23:35:09.928Z,94156.16
2024-02-23T23:37:38.314Z,94151.13
2024-02-23T23:40:07.788Z,94144.53
2024-02-23T23:42:37.482Z,94136.34
2024-02-23T23:45:06.558Z,94145.31
2024-02-23T23:47:34.975Z,94145.84
2024-02-23T23:50:03.461Z,94153.25
2024-02-23T23:52:32.158Z,94149.81
2024-02-23T23:55:00.634Z,94153.78
2024-02-23T23:57:29.944Z,94157.22
2024-02-23T23:59:59.951Z,94160.38
